sensor_id;sensor_type;location;lat;lon;timestamp;temperature;humidity
44461;DHT22;30162;53.642;10.640;2022-07-17T00:00:25;17.70;77.30
44461;DHT22;30162;53.642;10.640;2022-07-17T00:02:50;17.50;77.60
44461;DHT22;30162;53.642;10.640;2022-07-17T00:05:17;17.60;77.60
44461;DHT22;30162;53.642;10.640;2022-07-17T00:07:42;17.30;77.90
44461;DHT22;30162;53.642;10.640;2022-07-17T00:10:08;17.20;78.70
44461;DHT22;30162;53.642;10.640;2022-07-17T00:12:34;17.40;77.80
44461;DHT22;30162;53.642;10.640;2022-07-17T00:14:59;17.50;77.90
44461;DHT22;30162;53.642;10.640;2022-07-17T00:17:25;17.50;77.50
44461;DHT22;30162;53.642;10.640;2022-07-17T00:19:51;17.50;77.80
44461;DHT22;30162;53.642;10.640;2022-07-17T00:22:17;17.50;77.70
44461;DHT22;30162;53.642;10.640;2022-07-17T00:24:43;17.40;78.60
44461;DHT22;30162;53.642;10.640;2022-07-17T00:27:08;17.50;77.90
44461;DHT22;30162;53.642;10.640;2022-07-17T00:29:34;17.40;77.80
44461;DHT22;30162;53.642;10.640;2022-07-17T00:32:00;17.20;78.80
44461;DHT22;30162;53.642;10.640;2022-07-17T00:34:25;17.30;78.20
44461;DHT22;30162;53.642;10.640;2022-07-17T00:36:51;17.40;78.60
44461;DHT22;30162;53.642;10.640;2022-07-17T00:39:16;17.40;78.20
44461;DHT22;30162;53.642;10.640;2022-07-17T00:41:45;17.30;78.10
44461;DHT22;30162;53.642;10.640;2022-07-17T00:44:11;17.30;78.60
44461;DHT22;30162;53.642;10.640;2022-07-17T00:46:38;17.30;78.00
44461;DHT22;30162;53.642;10.640;2022-07-17T00:49:05;17.20;78.40
44461;DHT22;30162;53.642;10.640;2022-07-17T00:51:31;17.20;78.70
44461;DHT22;30162;53.642;10.640;2022-07-17T00:53:58;17.20;78.80
44461;DHT22;30162;53.642;10.640;2022-07-17T00:56:25;16.90;79.80
44461;DHT22;30162;53.642;10.640;2022-07-17T00:58:52;17.10;79.20
44461;DHT22;30162;53.642;10.640;2022-07-17T01:01:18;17.20;79.40
44461;DHT22;30162;53.642;10.640;2022-07-17T01:03:44;17.10;79.00
44461;DHT22;30162;53.642;10.640;2022-07-17T01:06:10;17.10;78.90
44461;DHT22;30162;53.642;10.640;2022-07-17T01:08:36;17.20;78.90
44461;DHT22;30162;53.642;10.640;2022-07-17T01:11:02;16.90;79.40
44461;DHT22;30162;53.642;10.640;2022-07-17T01:13:29;16.80;80.00
44461;DHT22;30162;53.642;10.640;2022-07-17T01:15:55;17.00;79.80
44461;DHT22;30162;53.642;10.640;2022-07-17T01:18:20;17.00;79.70
44461;DHT22;30162;53.642;10.640;2022-07-17T01:20:48;17.00;79.60
44461;DHT22;30162;53.642;10.640;2022-07-17T01:23:16;17.10;79.40
44461;DHT22;30162;53.642;10.640;2022-07-17T01:25:43;16.80;80.10
44461;DHT22;30162;53.642;10.640;2022-07-17T01:28:09;16.90;80.10
44461;DHT22;30162;53.642;10.640;2022-07-17T01:30:36;16.90;80.20
44461;DHT22;30162;53.642;10.640;2022-07-17T01:33:02;16.80;80.70
44461;DHT22;30162;53.642;10.640;2022-07-17T01:35:28;16.80;80.40
44461;DHT22;30162;53.642;10.640;2022-07-17T01:37:53;16.90;80.20
44461;DHT22;30162;53.642;10.640;2022-07-17T01:40:19;16.80;80.90
44461;DHT22;30162;53.642;10.640;2022-07-17T01:42:49;16.80;80.80
44461;DHT22;30162;53.642;10.640;2022-07-17T01:45:17;16.50;81.80
44461;DHT22;30162;53.642;10.640;2022-07-17T01:47:43;16.30;82.50
44461;DHT22;30162;53.642;10.640;2022-07-17T01:50:10;16.20;82.90
44461;DHT22;30162;53.642;10.640;2022-07-17T01:52:38;16.30;83.10
44461;DHT22;30162;53.642;10.640;2022-07-17T01:55:09;16.50;82.50
44461;DHT22;30162;53.642;10.640;2022-07-17T01:57:35;16.40;82.40
44461;DHT22;30162;53.642;10.640;2022-07-17T02:00:06;16.30;82.90
44461;DHT22;30162;53.642;10.640;2022-07-17T02:02:32;16.20;83.50
44461;DHT22;30162;53.642;10.640;2022-07-17T02:04:58;16.20;83.40
44461;DHT22;30162;53.642;10.640;2022-07-17T02:07:23;16.10;83.80
44461;DHT22;30162;53.642;10.640;2022-07-17T02:09:49;16.30;83.70
44461;DHT22;30162;53.642;10.640;2022-07-17T02:12:14;16.30;83.60
44461;DHT22;30162;53.642;10.640;2022-07-17T02:14:40;16.30;83.70
44461;DHT22;30162;53.642;10.640;2022-07-17T02:17:05;16.20;84.70
44461;DHT22;30162;53.642;10.640;2022-07-17T02:19:31;16.20;83.80
44461;DHT22;30162;53.642;10.640;2022-07-17T02:21:57;16.10;84.80
44461;DHT22;30162;53.642;10.640;2022-07-17T02:24:22;16.10;85.20
44461;DHT22;30162;53.642;10.640;2022-07-17T02:26:48;16.10;85.30
44461;DHT22;30162;53.642;10.640;2022-07-17T02:29:13;16.00;85.40
44461;DHT22;30162;53.642;10.640;2022-07-17T02:31:39;15.90;85.80
44461;DHT22;30162;53.642;10.640;2022-07-17T02:34:04;16.00;85.90
44461;DHT22;30162;53.642;10.640;2022-07-17T02:36:30;16.10;85.20
44461;DHT22;30162;53.642;10.640;2022-07-17T02:38:56;16.10;85.20
44461;DHT22;30162;53.642;10.640;2022-07-17T02:41:22;16.20;85.10
44461;DHT22;30162;53.642;10.640;2022-07-17T02:43:47;16.10;85.20
44461;DHT22;30162;53.642;10.640;2022-07-17T02:46:13;16.00;85.20
44461;DHT22;30162;53.642;10.640;2022-07-17T02:48:40;16.10;85.90
44461;DHT22;30162;53.642;10.640;2022-07-17T02:51:06;16.10;85.80
44461;DHT22;30162;53.642;10.640;2022-07-17T02:53:32;16.10;85.30
44461;DHT22;30162;53.642;10.640;2022-07-17T02:55:58;16.00;85.60
44461;DHT22;30162;53.642;10.640;2022-07-17T02:58:23;16.00;85.90
44461;DHT22;30162;53.642;10.640;2022-07-17T03:00:49;16.00;85.90
44461;DHT22;30162;53.642;10.640;2022-07-17T03:03:15;16.00;86.10
44461;DHT22;30162;53.642;10.640;2022-07-17T03:05:40;16.00;86.40
44461;DHT22;30162;53.642;10.640;2022-07-17T03:08:06;16.10;86.20
44461;DHT22;30162;53.642;10.640;2022-07-17T03:10:31;16.20;86.00
44461;DHT22;30162;53.642;10.640;2022-07-17T03:12:58;16.10;86.10
44461;DHT22;30162;53.642;10.640;2022-07-17T03:15:23;16.20;86.00
44461;DHT22;30162;53.642;10.640;2022-07-17T03:17:49;16.20;86.50
44461;DHT22;30162;53.642;10.640;2022-07-17T03:20:14;16.30;86.50
44461;DHT22;30162;53.642;10.640;2022-07-17T03:22:40;16.20;86.60
44461;DHT22;30162;53.642;10.640;2022-07-17T03:25:06;16.20;86.80
44461;DHT22;30162;53.642;10.640;2022-07-17T03:27:32;16.30;86.40
44461;DHT22;30162;53.642;10.640;2022-07-17T03:29:58;16.40;86.30
44461;DHT22;30162;53.642;10.640;2022-07-17T03:32:23;16.40;86.10
44461;DHT22;30162;53.642;10.640;2022-07-17T03:34:49;16.40;86.80
44461;DHT22;30162;53.642;10.640;2022-07-17T03:37:14;16.50;86.40
44461;DHT22;30162;53.642;10.640;2022-07-17T03:39:41;16.40;86.70
44461;DHT22;30162;53.642;10.640;2022-07-17T03:42:06;16.50;86.70
44461;DHT22;30162;53.642;10.640;2022-07-17T03:44:32;16.50;87.00
44461;DHT22;30162;53.642;10.640;2022-07-17T03:46:57;16.60;86.50
44461;DHT22;30162;53.642;10.640;2022-07-17T03:49:23;16.50;86.80
44461;DHT22;30162;53.642;10.640;2022-07-17T03:51:49;16.50;86.80
44461;DHT22;30162;53.642;10.640;2022-07-17T03:54:15;16.60;86.70
44461;DHT22;30162;53.642;10.640;2022-07-17T03:56:41;16.60;86.00
44461;DHT22;30162;53.642;10.640;2022-07-17T03:59:06;16.60;86.60
44461;DHT22;30162;53.642;10.640;2022-07-17T04:01:32;16.50;87.20
44461;DHT22;30162;53.642;10.640;2022-07-17T04:03:58;16.60;86.40
44461;DHT22;30162;53.642;10.640;2022-07-17T04:06:23;16.80;85.80
44461;DHT22;30162;53.642;10.640;2022-07-17T04:08:49;16.90;85.80
44461;DHT22;30162;53.642;10.640;2022-07-17T04:11:14;17.00;85.20
44461;DHT22;30162;53.642;10.640;2022-07-17T04:13:40;16.90;85.60
44461;DHT22;30162;53.642;10.640;2022-07-17T04:16:05;16.80;86.20
44461;DHT22;30162;53.642;10.640;2022-07-17T04:18:33;16.70;86.10
44461;DHT22;30162;53.642;10.640;2022-07-17T04:21:03;16.80;86.70
44461;DHT22;30162;53.642;10.640;2022-07-17T04:23:29;16.80;86.60
44461;DHT22;30162;53.642;10.640;2022-07-17T04:25:54;17.00;86.70
44461;DHT22;30162;53.642;10.640;2022-07-17T04:28:20;17.10;86.20
44461;DHT22;30162;53.642;10.640;2022-07-17T04:30:46;17.20;85.60
44461;DHT22;30162;53.642;10.640;2022-07-17T04:33:12;17.30;85.00
44461;DHT22;30162;53.642;10.640;2022-07-17T04:35:38;17.10;85.50
44461;DHT22;30162;53.642;10.640;2022-07-17T04:38:05;17.00;86.20
44461;DHT22;30162;53.642;10.640;2022-07-17T04:40:32;17.20;86.40
44461;DHT22;30162;53.642;10.640;2022-07-17T04:42:58;17.30;85.80
44461;DHT22;30162;53.642;10.640;2022-07-17T04:45:24;17.40;85.60
44461;DHT22;30162;53.642;10.640;2022-07-17T04:47:49;17.30;85.80
44461;DHT22;30162;53.642;10.640;2022-07-17T04:50:15;17.30;86.10
44461;DHT22;30162;53.642;10.640;2022-07-17T04:52:41;17.30;86.10
44461;DHT22;30162;53.642;10.640;2022-07-17T04:55:07;17.20;86.00
44461;DHT22;30162;53.642;10.640;2022-07-17T04:57:32;17.30;85.90
44461;DHT22;30162;53.642;10.640;2022-07-17T04:59:58;17.60;85.10
44461;DHT22;30162;53.642;10.640;2022-07-17T05:02:24;17.60;84.90
44461;DHT22;30162;53.642;10.640;2022-07-17T05:04:49;17.20;85.60
44461;DHT22;30162;53.642;10.640;2022-07-17T05:07:15;17.30;86.60
44461;DHT22;30162;53.642;10.640;2022-07-17T05:09:41;17.60;85.60
44461;DHT22;30162;53.642;10.640;2022-07-17T05:12:07;17.80;85.10
44461;DHT22;30162;53.642;10.640;2022-07-17T05:14:32;18.00;84.50
44461;DHT22;30162;53.642;10.640;2022-07-17T05:16:58;18.00;84.20
44461;DHT22;30162;53.642;10.640;2022-07-17T05:19:24;17.90;84.30
44461;DHT22;30162;53.642;10.640;2022-07-17T05:21:50;17.90;84.40
44461;DHT22;30162;53.642;10.640;2022-07-17T05:24:16;18.00;84.60
44461;DHT22;30162;53.642;10.640;2022-07-17T05:26:41;18.10;84.20
44461;DHT22;30162;53.642;10.640;2022-07-17T05:29:07;18.40;83.60
44461;DHT22;30162;53.642;10.640;2022-07-17T05:31:33;18.50;82.30
44461;DHT22;30162;53.642;10.640;2022-07-17T05:33:58;18.60;82.80
44461;DHT22;30162;53.642;10.640;2022-07-17T05:36:24;18.60;82.70
44461;DHT22;30162;53.642;10.640;2022-07-17T05:38:49;18.90;82.00
44461;DHT22;30162;53.642;10.640;2022-07-17T05:41:15;18.90;81.40
44461;DHT22;30162;53.642;10.640;2022-07-17T05:43:40;18.90;81.80
44461;DHT22;30162;53.642;10.640;2022-07-17T05:46:06;18.80;82.10
44461;DHT22;30162;53.642;10.640;2022-07-17T05:48:31;19.00;82.00
44461;DHT22;30162;53.642;10.640;2022-07-17T05:50:57;19.00;82.20
44461;DHT22;30162;53.642;10.640;2022-07-17T05:53:23;19.10;81.60
44461;DHT22;30162;53.642;10.640;2022-07-17T05:55:49;19.10;81.40
44461;DHT22;30162;53.642;10.640;2022-07-17T05:58:15;19.20;81.40
44461;DHT22;30162;53.642;10.640;2022-07-17T06:00:40;19.30;80.70
44461;DHT22;30162;53.642;10.640;2022-07-17T06:03:06;19.50;80.50
44461;DHT22;30162;53.642;10.640;2022-07-17T06:05:32;19.50;80.90
44461;DHT22;30162;53.642;10.640;2022-07-17T06:07:58;19.50;80.70
44461;DHT22;30162;53.642;10.640;2022-07-17T06:10:24;19.60;80.70
44461;DHT22;30162;53.642;10.640;2022-07-17T06:12:50;19.70;80.60
44461;DHT22;30162;53.642;10.640;2022-07-17T06:15:21;19.50;79.30
44461;DHT22;30162;53.642;10.640;2022-07-17T06:17:47;19.70;80.10
44461;DHT22;30162;53.642;10.640;2022-07-17T06:20:13;19.90;80.00
44461;DHT22;30162;53.642;10.640;2022-07-17T06:22:40;20.10;78.60
44461;DHT22;30162;53.642;10.640;2022-07-17T06:25:06;20.00;77.90
44461;DHT22;30162;53.642;10.640;2022-07-17T06:27:32;20.10;79.00
44461;DHT22;30162;53.642;10.640;2022-07-17T06:29:58;20.30;78.90
44461;DHT22;30162;53.642;10.640;2022-07-17T06:32:24;20.40;78.00
44461;DHT22;30162;53.642;10.640;2022-07-17T06:34:50;20.40;77.60
44461;DHT22;30162;53.642;10.640;2022-07-17T06:37:15;20.00;78.30
44461;DHT22;30162;53.642;10.640;2022-07-17T06:39:41;20.00;78.10
44461;DHT22;30162;53.642;10.640;2022-07-17T06:42:07;20.30;77.70
44461;DHT22;30162;53.642;10.640;2022-07-17T06:44:32;20.40;77.00
44461;DHT22;30162;53.642;10.640;2022-07-17T06:46:59;20.50;77.60
44461;DHT22;30162;53.642;10.640;2022-07-17T06:49:25;20.60;76.50
44461;DHT22;30162;53.642;10.640;2022-07-17T06:51:50;20.50;75.40
44461;DHT22;30162;53.642;10.640;2022-07-17T06:54:16;20.40;77.10
44461;DHT22;30162;53.642;10.640;2022-07-17T06:56:42;20.70;77.00
44461;DHT22;30162;53.642;10.640;2022-07-17T06:59:08;20.60;77.00
44461;DHT22;30162;53.642;10.640;2022-07-17T07:01:37;20.60;76.40
44461;DHT22;30162;53.642;10.640;2022-07-17T07:04:03;20.60;75.30
44461;DHT22;30162;53.642;10.640;2022-07-17T07:06:30;20.60;76.30
44461;DHT22;30162;53.642;10.640;2022-07-17T07:08:55;20.90;76.30
44461;DHT22;30162;53.642;10.640;2022-07-17T07:11:22;21.20;76.20
44461;DHT22;30162;53.642;10.640;2022-07-17T07:13:48;21.90;74.10
44461;DHT22;30162;53.642;10.640;2022-07-17T07:16:14;22.40;72.90
44461;DHT22;30162;53.642;10.640;2022-07-17T07:18:40;22.50;70.80
44461;DHT22;30162;53.642;10.640;2022-07-17T07:21:05;22.50;70.60
44461;DHT22;30162;53.642;10.640;2022-07-17T07:23:31;22.40;71.30
44461;DHT22;30162;53.642;10.640;2022-07-17T07:25:57;22.40;70.20
44461;DHT22;30162;53.642;10.640;2022-07-17T07:28:22;22.20;71.10
44461;DHT22;30162;53.642;10.640;2022-07-17T07:30:48;22.10;71.50
44461;DHT22;30162;53.642;10.640;2022-07-17T07:33:14;22.00;72.00
44461;DHT22;30162;53.642;10.640;2022-07-17T07:35:41;22.00;72.00
44461;DHT22;30162;53.642;10.640;2022-07-17T07:38:07;22.00;71.40
44461;DHT22;30162;53.642;10.640;2022-07-17T07:40:33;21.70;72.40
44461;DHT22;30162;53.642;10.640;2022-07-17T07:42:59;21.60;71.40
44461;DHT22;30162;53.642;10.640;2022-07-17T07:45:24;21.50;71.60
44461;DHT22;30162;53.642;10.640;2022-07-17T07:47:50;21.40;72.20
44461;DHT22;30162;53.642;10.640;2022-07-17T07:50:16;21.30;72.10
44461;DHT22;30162;53.642;10.640;2022-07-17T07:52:43;21.30;73.10
44461;DHT22;30162;53.642;10.640;2022-07-17T07:55:12;21.70;73.10
44461;DHT22;30162;53.642;10.640;2022-07-17T07:57:38;22.00;72.40
44461;DHT22;30162;53.642;10.640;2022-07-17T08:00:05;22.30;72.00
44461;DHT22;30162;53.642;10.640;2022-07-17T08:02:31;22.70;71.20
44461;DHT22;30162;53.642;10.640;2022-07-17T08:04:56;23.20;70.40
44461;DHT22;30162;53.642;10.640;2022-07-17T08:07:22;23.50;68.80
44461;DHT22;30162;53.642;10.640;2022-07-17T08:09:47;23.60;68.40
44461;DHT22;30162;53.642;10.640;2022-07-17T08:12:14;23.80;69.40
44461;DHT22;30162;53.642;10.640;2022-07-17T08:14:39;24.10;67.90
44461;DHT22;30162;53.642;10.640;2022-07-17T08:17:05;24.00;67.60
44461;DHT22;30162;53.642;10.640;2022-07-17T08:19:30;23.90;66.40
44461;DHT22;30162;53.642;10.640;2022-07-17T08:21:56;23.90;68.00
44461;DHT22;30162;53.642;10.640;2022-07-17T08:24:21;24.00;66.90
44461;DHT22;30162;53.642;10.640;2022-07-17T08:26:47;24.30;65.80
44461;DHT22;30162;53.642;10.640;2022-07-17T08:29:13;24.90;66.00
44461;DHT22;30162;53.642;10.640;2022-07-17T08:31:38;25.50;64.40
44461;DHT22;30162;53.642;10.640;2022-07-17T08:34:04;25.00;63.80
44461;DHT22;30162;53.642;10.640;2022-07-17T08:36:29;24.70;64.70
44461;DHT22;30162;53.642;10.640;2022-07-17T08:38:55;24.40;64.00
44461;DHT22;30162;53.642;10.640;2022-07-17T08:41:20;24.00;63.20
44461;DHT22;30162;53.642;10.640;2022-07-17T08:43:47;24.20;63.40
44461;DHT22;30162;53.642;10.640;2022-07-17T08:46:14;24.60;62.80
44461;DHT22;30162;53.642;10.640;2022-07-17T08:48:42;25.20;61.70
44461;DHT22;30162;53.642;10.640;2022-07-17T08:51:10;25.30;62.10
44461;DHT22;30162;53.642;10.640;2022-07-17T08:53:37;25.60;60.50
44461;DHT22;30162;53.642;10.640;2022-07-17T08:56:03;25.20;61.40
44461;DHT22;30162;53.642;10.640;2022-07-17T08:58:29;25.10;62.90
44461;DHT22;30162;53.642;10.640;2022-07-17T09:00:54;25.50;61.80
44461;DHT22;30162;53.642;10.640;2022-07-17T09:03:20;26.00;61.00
44461;DHT22;30162;53.642;10.640;2022-07-17T09:05:48;25.70;61.40
44461;DHT22;30162;53.642;10.640;2022-07-17T09:08:20;25.50;60.80
44461;DHT22;30162;53.642;10.640;2022-07-17T09:10:48;25.60;59.70
44461;DHT22;30162;53.642;10.640;2022-07-17T09:13:29;25.90;59.40
44461;DHT22;30162;53.642;10.640;2022-07-17T09:18:31;26.30;59.50
44461;DHT22;30162;53.642;10.640;2022-07-17T09:20:57;26.50;59.20
44461;DHT22;30162;53.642;10.640;2022-07-17T09:23:26;26.70;58.90
44461;DHT22;30162;53.642;10.640;2022-07-17T09:25:54;26.20;58.10
44461;DHT22;30162;53.642;10.640;2022-07-17T09:28:20;25.70;58.50
44461;DHT22;30162;53.642;10.640;2022-07-17T09:30:53;25.60;60.30
44461;DHT22;30162;53.642;10.640;2022-07-17T09:33:21;25.70;60.60
44461;DHT22;30162;53.642;10.640;2022-07-17T09:36:08;26.30;59.70
44461;DHT22;30162;53.642;10.640;2022-07-17T09:38:39;26.40;58.50
44461;DHT22;30162;53.642;10.640;2022-07-17T09:41:05;26.40;57.80
44461;DHT22;30162;53.642;10.640;2022-07-17T09:46:13;27.00;58.40
44461;DHT22;30162;53.642;10.640;2022-07-17T09:48:46;27.20;56.90
44461;DHT22;30162;53.642;10.640;2022-07-17T09:51:23;27.60;56.40
44461;DHT22;30162;53.642;10.640;2022-07-17T09:53:52;27.90;56.30
44461;DHT22;30162;53.642;10.640;2022-07-17T09:56:21;28.10;55.50
44461;DHT22;30162;53.642;10.640;2022-07-17T09:58:49;27.50;55.50
44461;DHT22;30162;53.642;10.640;2022-07-17T10:01:16;27.10;56.40
44461;DHT22;30162;53.642;10.640;2022-07-17T10:03:43;26.90;55.50
44461;DHT22;30162;53.642;10.640;2022-07-17T10:06:12;26.80;54.40
44461;DHT22;30162;53.642;10.640;2022-07-17T10:08:38;27.30;54.80
44461;DHT22;30162;53.642;10.640;2022-07-17T10:11:09;27.40;54.50
44461;DHT22;30162;53.642;10.640;2022-07-17T10:13:43;27.60;54.30
44461;DHT22;30162;53.642;10.640;2022-07-17T10:16:10;28.00;54.50
44461;DHT22;30162;53.642;10.640;2022-07-17T10:18:43;27.60;53.80
44461;DHT22;30162;53.642;10.640;2022-07-17T10:23:35;28.00;53.30
44461;DHT22;30162;53.642;10.640;2022-07-17T10:26:01;28.40;51.50
44461;DHT22;30162;53.642;10.640;2022-07-17T10:28:47;28.10;51.50
44461;DHT22;30162;53.642;10.640;2022-07-17T10:31:27;28.40;53.20
44461;DHT22;30162;53.642;10.640;2022-07-17T10:34:04;28.50;53.10
44461;DHT22;30162;53.642;10.640;2022-07-17T10:36:39;28.30;53.30
44461;DHT22;30162;53.642;10.640;2022-07-17T10:39:16;28.30;55.00
44461;DHT22;30162;53.642;10.640;2022-07-17T10:41:42;28.50;53.10
44461;DHT22;30162;53.642;10.640;2022-07-17T10:44:08;28.70;53.50
44461;DHT22;30162;53.642;10.640;2022-07-17T10:46:34;28.70;53.00
44461;DHT22;30162;53.642;10.640;2022-07-17T10:49:01;27.90;51.80
44461;DHT22;30162;53.642;10.640;2022-07-17T10:51:29;28.10;53.00
44461;DHT22;30162;53.642;10.640;2022-07-17T10:53:59;28.60;52.30
44461;DHT22;30162;53.642;10.640;2022-07-17T10:56:25;28.90;52.10
44461;DHT22;30162;53.642;10.640;2022-07-17T10:58:52;29.10;51.80
44461;DHT22;30162;53.642;10.640;2022-07-17T11:01:18;29.10;51.60
44461;DHT22;30162;53.642;10.640;2022-07-17T11:03:50;29.40;50.90
44461;DHT22;30162;53.642;10.640;2022-07-17T11:06:26;29.30;50.90
44461;DHT22;30162;53.642;10.640;2022-07-17T11:11:23;28.00;50.90
44461;DHT22;30162;53.642;10.640;2022-07-17T11:16:37;28.90;51.50
44461;DHT22;30162;53.642;10.640;2022-07-17T11:19:03;29.20;50.30
44461;DHT22;30162;53.642;10.640;2022-07-17T11:21:29;29.30;50.70
44461;DHT22;30162;53.642;10.640;2022-07-17T11:23:56;29.60;50.60
44461;DHT22;30162;53.642;10.640;2022-07-17T11:26:23;29.50;50.00
44461;DHT22;30162;53.642;10.640;2022-07-17T11:28:50;29.10;49.90
44461;DHT22;30162;53.642;10.640;2022-07-17T11:31:22;29.10;49.50
44461;DHT22;30162;53.642;10.640;2022-07-17T11:33:53;29.40;49.50
44461;DHT22;30162;53.642;10.640;2022-07-17T11:36:31;29.50;49.60
44461;DHT22;30162;53.642;10.640;2022-07-17T11:39:03;29.40;49.50
44461;DHT22;30162;53.642;10.640;2022-07-17T11:41:51;29.40;49.10
44461;DHT22;30162;53.642;10.640;2022-07-17T11:44:19;29.40;49.90
44461;DHT22;30162;53.642;10.640;2022-07-17T11:46:47;29.90;48.70
44461;DHT22;30162;53.642;10.640;2022-07-17T11:49:27;29.90;48.50
44461;DHT22;30162;53.642;10.640;2022-07-17T11:51:55;29.20;49.30
44461;DHT22;30162;53.642;10.640;2022-07-17T11:54:21;29.40;48.90
44461;DHT22;30162;53.642;10.640;2022-07-17T11:56:55;29.20;49.30
44461;DHT22;30162;53.642;10.640;2022-07-17T11:59:26;29.40;48.20
44461;DHT22;30162;53.642;10.640;2022-07-17T12:01:53;29.50;49.10
44461;DHT22;30162;53.642;10.640;2022-07-17T12:04:19;28.80;50.20
44461;DHT22;30162;53.642;10.640;2022-07-17T12:06:46;28.70;51.20
44461;DHT22;30162;53.642;10.640;2022-07-17T12:09:12;28.30;51.80
44461;DHT22;30162;53.642;10.640;2022-07-17T12:11:45;28.80;51.20
44461;DHT22;30162;53.642;10.640;2022-07-17T12:14:11;29.00;50.50
44461;DHT22;30162;53.642;10.640;2022-07-17T12:16:37;29.40;50.60
44461;DHT22;30162;53.642;10.640;2022-07-17T12:19:11;29.40;50.20
44461;DHT22;30162;53.642;10.640;2022-07-17T12:22:03;29.80;49.60
44461;DHT22;30162;53.642;10.640;2022-07-17T12:24:31;30.00;50.00
44461;DHT22;30162;53.642;10.640;2022-07-17T12:26:59;29.80;49.30
44461;DHT22;30162;53.642;10.640;2022-07-17T12:29:26;30.10;49.90
44461;DHT22;30162;53.642;10.640;2022-07-17T12:32:08;30.20;49.00
44461;DHT22;30162;53.642;10.640;2022-07-17T12:34:36;30.20;49.60
44461;DHT22;30162;53.642;10.640;2022-07-17T12:37:02;29.70;48.90
44461;DHT22;30162;53.642;10.640;2022-07-17T12:39:28;29.50;48.80
44461;DHT22;30162;53.642;10.640;2022-07-17T12:41:54;29.80;49.10
44461;DHT22;30162;53.642;10.640;2022-07-17T12:44:19;28.90;49.90
44461;DHT22;30162;53.642;10.640;2022-07-17T12:46:45;29.00;49.60
44461;DHT22;30162;53.642;10.640;2022-07-17T12:49:11;29.20;49.50
44461;DHT22;30162;53.642;10.640;2022-07-17T12:51:36;29.20;49.60
44461;DHT22;30162;53.642;10.640;2022-07-17T12:54:02;28.80;49.30
44461;DHT22;30162;53.642;10.640;2022-07-17T12:56:27;28.10;50.80
44461;DHT22;30162;53.642;10.640;2022-07-17T12:58:53;28.70;50.90
44461;DHT22;30162;53.642;10.640;2022-07-17T13:01:19;29.40;50.50
44461;DHT22;30162;53.642;10.640;2022-07-17T13:03:45;29.60;48.60
44461;DHT22;30162;53.642;10.640;2022-07-17T13:06:11;29.40;49.50
44461;DHT22;30162;53.642;10.640;2022-07-17T13:08:37;29.70;49.90
44461;DHT22;30162;53.642;10.640;2022-07-17T13:11:04;29.90;49.70
44461;DHT22;30162;53.642;10.640;2022-07-17T13:13:30;29.00;49.20
44461;DHT22;30162;53.642;10.640;2022-07-17T13:15:56;29.20;50.60
44461;DHT22;30162;53.642;10.640;2022-07-17T13:18:22;29.40;50.90
44461;DHT22;30162;53.642;10.640;2022-07-17T13:20:48;29.30;51.40
44461;DHT22;30162;53.642;10.640;2022-07-17T13:23:14;29.20;50.10
44461;DHT22;30162;53.642;10.640;2022-07-17T13:25:41;29.10;49.80
44461;DHT22;30162;53.642;10.640;2022-07-17T13:28:08;29.30;50.60
44461;DHT22;30162;53.642;10.640;2022-07-17T13:30:34;29.60;49.20
44461;DHT22;30162;53.642;10.640;2022-07-17T13:32:59;29.70;50.00
44461;DHT22;30162;53.642;10.640;2022-07-17T13:35:25;29.90;49.60
44461;DHT22;30162;53.642;10.640;2022-07-17T13:37:51;30.20;49.90
44461;DHT22;30162;53.642;10.640;2022-07-17T13:40:17;30.70;49.60
44461;DHT22;30162;53.642;10.640;2022-07-17T13:42:48;31.00;49.10
44461;DHT22;30162;53.642;10.640;2022-07-17T13:45:13;30.50;48.70
44461;DHT22;30162;53.642;10.640;2022-07-17T13:47:39;30.70;48.10
44461;DHT22;30162;53.642;10.640;2022-07-17T13:50:05;31.00;48.10
44461;DHT22;30162;53.642;10.640;2022-07-17T13:52:32;31.00;48.10
44461;DHT22;30162;53.642;10.640;2022-07-17T13:54:57;31.10;48.40
44461;DHT22;30162;53.642;10.640;2022-07-17T13:57:24;30.60;47.80
44461;DHT22;30162;53.642;10.640;2022-07-17T13:59:50;30.20;49.30
44461;DHT22;30162;53.642;10.640;2022-07-17T14:02:15;30.30;49.60
44461;DHT22;30162;53.642;10.640;2022-07-17T14:04:41;30.50;48.90
44461;DHT22;30162;53.642;10.640;2022-07-17T14:07:07;30.70;49.00
44461;DHT22;30162;53.642;10.640;2022-07-17T14:09:33;30.80;48.80
44461;DHT22;30162;53.642;10.640;2022-07-17T14:11:59;30.70;49.70
44461;DHT22;30162;53.642;10.640;2022-07-17T14:14:24;30.70;48.70
44461;DHT22;30162;53.642;10.640;2022-07-17T14:16:50;30.70;49.10
44461;DHT22;30162;53.642;10.640;2022-07-17T14:19:16;30.60;49.20
44461;DHT22;30162;53.642;10.640;2022-07-17T14:21:41;30.80;49.40
44461;DHT22;30162;53.642;10.640;2022-07-17T14:24:08;30.30;49.20
44461;DHT22;30162;53.642;10.640;2022-07-17T14:26:34;30.20;49.60
44461;DHT22;30162;53.642;10.640;2022-07-17T14:29:00;30.00;48.70
44461;DHT22;30162;53.642;10.640;2022-07-17T14:31:26;29.70;49.20
44461;DHT22;30162;53.642;10.640;2022-07-17T14:33:51;29.30;49.00
44461;DHT22;30162;53.642;10.640;2022-07-17T14:36:17;29.70;49.00
44461;DHT22;30162;53.642;10.640;2022-07-17T14:38:43;29.90;49.00
44461;DHT22;30162;53.642;10.640;2022-07-17T14:41:09;30.10;49.00
44461;DHT22;30162;53.642;10.640;2022-07-17T14:43:34;30.10;48.70
44461;DHT22;30162;53.642;10.640;2022-07-17T14:46:00;29.90;48.00
44461;DHT22;30162;53.642;10.640;2022-07-17T14:48:26;29.30;49.30
44461;DHT22;30162;53.642;10.640;2022-07-17T14:50:51;29.10;49.10
44461;DHT22;30162;53.642;10.640;2022-07-17T14:53:17;29.10;49.70
44461;DHT22;30162;53.642;10.640;2022-07-17T14:55:43;28.70;50.00
44461;DHT22;30162;53.642;10.640;2022-07-17T14:58:08;28.50;50.90
44461;DHT22;30162;53.642;10.640;2022-07-17T15:00:34;28.00;51.00
44461;DHT22;30162;53.642;10.640;2022-07-17T15:02:59;27.60;52.00
44461;DHT22;30162;53.642;10.640;2022-07-17T15:05:25;27.60;52.20
44461;DHT22;30162;53.642;10.640;2022-07-17T15:07:50;27.80;52.20
44461;DHT22;30162;53.642;10.640;2022-07-17T15:10:16;27.90;51.90
44461;DHT22;30162;53.642;10.640;2022-07-17T15:12:42;27.90;51.90
44461;DHT22;30162;53.642;10.640;2022-07-17T15:15:08;28.00;52.60
44461;DHT22;30162;53.642;10.640;2022-07-17T15:17:34;28.10;52.20
44461;DHT22;30162;53.642;10.640;2022-07-17T15:19:59;28.20;51.60
44461;DHT22;30162;53.642;10.640;2022-07-17T15:22:25;28.30;52.70
44461;DHT22;30162;53.642;10.640;2022-07-17T15:24:50;28.50;52.30